Aérodrome :
LOGIN :

S'inscrire | Disclaimer

   EN    FR    IT 

 










Légende :    VFR   VFR Marginal   IFR   IFR Intensif   IFR Très Intensif
Visi : 
Plafond : 
>= 8 km
>= 3000ft
5 à 8 km
1000 à 3000 ft
1500m à 5 km
500 à 1000 ft
800 à 1500m
200 à 500 ft
< 800m
< 200 ft
Symboles :   Orages  Brouillard  Fortes neiges  Fortes précipitations  Vent > 20 kt
SIGMETs :   Divers  Orages  Givrage  Turbulence  Onde Orograph.  Cendres Volcan.






- Altitude de l'aérodrome : 218 ft
- Code IATA : LBG


LFPB - Paris / Le Bourget

DERNIER METAR :
  • 270500Z AUTO 19014KT 9000 BKN010 OVC014 09/08 Q1010 TEMPO 4000 RA BECMG 20015G25KT

METARs EXPIRÉS :
  • 270430Z AUTO 19011KT 9999 BKN010/// OVC015/// ///TCU 09/08 Q1010 TEMPO 4000 RA BKN007 BECMG 20015G25KT
  • 270400Z AUTO 19014KT 9999 -RA OVC013 09/08 Q1011 TEMPO 4000 RA BKN007 BECMG 20015G25KT
  • 270330Z AUTO 19013KT 9999 OVC013 09/08 Q1011 TEMPO 4000 RA BKN007 BECMG 20015G25KT
  • 270300Z AUTO 19013KT 9999 OVC013/// ///TCU 09/07 Q1011 TEMPO 4000 RA BKN007 BECMG 20015G25KT
  • 270230Z AUTO 18012KT 9999 -RA OVC012/// ///TCU 09/08 Q1012 TEMPO 4000 RA BKN007 BECMG 20015G25KT

TAF TAF LFPB
Valide du 27 à 00h jusqu'au 28 à 00h UTC


262300Z 2700/2724 20015G25KT 9999 BKN014
PROB40
TEMPO 2700/2718 4000 RA BKN007
BECMG 2718/2720 BKN016
PROB40
TEMPO 2720/2724 3000 SHRA SCT012CB BKN015
ATIS : +33 1 48 62 43 92



MET'MAP, la Météo Aéronautique d'un coup d'oeil ! - Copyright ORBIFLY Décembre 2007 - Disclaimer

ORBIFLY MET'MAP TEAM :

Programmation & Développement : Alexandra Zaïnal
Sur une idée originale de : Baudouin d'Aumeries
Assistance à la programmation : Marc-Olivier Méhu
Soutien technique & logistique : Manuel Goepfert

Contact : metmap@orbifly.com




SOURCES & CREDITS :

   NOAA